createdAt,value
2022-09-13T00:00:02.830Z,984.62
2022-09-13T00:01:02.851Z,984.66
2022-09-13T00:02:02.807Z,984.64
2022-09-13T00:03:02.717Z,984.62
2022-09-13T00:04:02.685Z,984.60
2022-09-13T00:05:02.639Z,984.60
2022-09-13T00:06:02.604Z,984.56
2022-09-13T00:07:02.566Z,984.54
2022-09-13T00:08:02.544Z,984.52
2022-09-13T00:09:02.497Z,984.52
2022-09-13T00:10:02.445Z,984.50
2022-09-13T00:11:02.408Z,984.50
2022-09-13T00:12:02.367Z,984.52
2022-09-13T00:13:02.335Z,984.50
2022-09-13T00:14:02.306Z,984.52
2022-09-13T00:15:02.266Z,984.52
2022-09-13T00:16:02.251Z,984.54
2022-09-13T00:17:02.175Z,984.52
2022-09-13T00:18:02.126Z,984.50
2022-09-13T00:19:02.101Z,984.50
2022-09-13T00:20:02.046Z,984.50
2022-09-13T00:21:02.004Z,984.48
2022-09-13T00:22:01.965Z,984.50
2022-09-13T00:23:01.933Z,984.52
2022-09-13T00:24:01.893Z,984.54
2022-09-13T00:25:01.851Z,984.56
2022-09-13T00:26:01.813Z,984.60
2022-09-13T00:27:01.786Z,984.64
2022-09-13T00:28:01.744Z,984.64
2022-09-13T00:29:01.712Z,984.66
2022-09-13T00:30:01.662Z,984.66
2022-09-13T00:31:01.626Z,984.70
2022-09-13T00:32:01.606Z,984.70
2022-09-13T00:33:01.535Z,984.74
2022-09-13T00:34:01.510Z,984.78
2022-09-13T00:35:01.471Z,984.83
2022-09-13T00:36:01.410Z,984.85
2022-09-13T00:37:01.370Z,984.83
2022-09-13T00:38:01.339Z,984.83
2022-09-13T00:39:01.310Z,984.83
2022-09-13T00:40:01.304Z,984.81
2022-09-13T00:41:01.211Z,984.81
2022-09-13T00:42:01.170Z,984.81
2022-09-13T00:43:01.130Z,984.79
2022-09-13T00:44:01.080Z,984.78
2022-09-13T00:45:01.051Z,984.78
2022-09-13T00:46:01.025Z,984.74
2022-09-13T00:47:00.957Z,984.72
2022-09-13T00:48:00.898Z,984.72
2022-09-13T00:49:00.849Z,984.72
2022-09-13T00:50:00.817Z,984.72
2022-09-13T00:51:00.767Z,984.72
2022-09-13T00:52:00.727Z,984.70
2022-09-13T00:53:00.688Z,984.68
2022-09-13T00:54:00.649Z,984.70
2022-09-13T00:55:00.626Z,984.74
2022-09-13T00:56:00.567Z,984.74
2022-09-13T00:57:00.526Z,984.78
2022-09-13T00:58:00.496Z,984.79
2022-09-13T00:59:00.456Z,984.79
2022-09-13T01:00:00.436Z,984.78
2022-09-13T01:01:00.444Z,984.81
2022-09-13T01:02:00.370Z,984.81
2022-09-13T01:03:00.315Z,984.81
2022-09-13T01:04:00.284Z,984.83
2022-09-13T01:05:00.263Z,984.94
2022-09-13T01:06:00.214Z,984.98
2022-09-13T01:07:00.185Z,984.98
2022-09-13T01:08:00.144Z,985.00
2022-09-13T01:09:00.113Z,985.01
2022-09-13T01:10:00.091Z,985.00
2022-09-13T01:11:00.036Z,985.00
2022-09-13T01:11:59.984Z,984.94
2022-09-13T01:12:59.953Z,984.96
2022-09-13T01:13:59.912Z,984.94
2022-09-13T01:14:59.881Z,984.85
2022-09-13T01:15:59.869Z,984.85
2022-09-13T01:16:59.793Z,984.85
2022-09-13T01:17:59.766Z,984.85
2022-09-13T01:18:59.727Z,984.85
2022-09-13T01:19:59.701Z,984.94
2022-09-13T01:20:59.652Z,984.94
2022-09-13T01:21:59.611Z,984.94
2022-09-13T01:22:59.579Z,984.96
2022-09-13T01:23:59.541Z,984.85
2022-09-13T01:24:59.500Z,984.85
2022-09-13T01:25:59.470Z,984.81
2022-09-13T01:26:59.423Z,984.81
2022-09-13T01:27:59.380Z,984.79
2022-09-13T01:28:59.350Z,984.79
2022-09-13T01:29:59.308Z,984.78
2022-09-13T01:30:59.277Z,984.79
2022-09-13T01:31:59.246Z,984.78
2022-09-13T01:32:59.201Z,984.79
2022-09-13T01:33:59.157Z,984.78
2022-09-13T01:34:59.112Z,984.78
2022-09-13T01:35:59.085Z,984.78
2022-09-13T01:36:59.039Z,984.76
2022-09-13T01:37:58.999Z,984.76
2022-09-13T01:38:58.957Z,984.76
2022-09-13T01:39:59.033Z,984.74
2022-09-13T01:41:01.876Z,984.74
2022-09-13T01:41:59.869Z,984.74
2022-09-13T01:42:58.827Z,984.78
2022-09-13T01:43:58.787Z,984.78
2022-09-13T01:44:58.765Z,984.81
2022-09-13T01:45:58.773Z,984.83
2022-09-13T01:46:58.697Z,984.83
2022-09-13T01:47:58.670Z,984.81
2022-09-13T01:48:58.647Z,984.81
2022-09-13T01:49:58.595Z,984.79
2022-09-13T01:50:58.565Z,984.78
2022-09-13T01:51:58.514Z,984.79
2022-09-13T01:52:58.496Z,984.78
2022-09-13T01:53:58.464Z,984.79
2022-09-13T01:54:58.434Z,984.76
2022-09-13T01:55:58.403Z,984.81
2022-09-13T01:56:58.361Z,984.78
2022-09-13T01:57:58.341Z,984.76
2022-09-13T01:58:58.300Z,984.74
2022-09-13T01:59:58.253Z,984.74
2022-09-13T02:00:58.267Z,984.76
2022-09-13T02:01:58.199Z,984.79
2022-09-13T02:02:58.147Z,984.78
2022-09-13T02:03:58.112Z,984.79
2022-09-13T02:04:58.082Z,984.78
2022-09-13T02:05:58.062Z,984.79
2022-09-13T02:06:58.011Z,984.79
2022-09-13T02:07:57.971Z,984.79
2022-09-13T02:08:57.943Z,984.81
2022-09-13T02:09:57.909Z,984.81
2022-09-13T02:10:57.890Z,984.83
2022-09-13T02:11:57.843Z,984.85
2022-09-13T02:12:57.819Z,984.83
2022-09-13T02:13:57.777Z,984.85
2022-09-13T02:14:57.747Z,984.85
2022-09-13T02:15:57.720Z,984.85
2022-09-13T02:16:57.679Z,984.83
2022-09-13T02:17:57.649Z,984.81
2022-09-13T02:18:57.619Z,984.81
2022-09-13T02:19:57.589Z,984.76
2022-09-13T02:20:57.576Z,984.74
2022-09-13T02:21:57.528Z,984.72
2022-09-13T02:22:57.508Z,984.68
2022-09-13T02:23:57.477Z,984.66
2022-09-13T02:24:57.444Z,984.66
2022-09-13T02:25:57.416Z,984.62
2022-09-13T02:26:57.377Z,984.62
2022-09-13T02:27:57.346Z,984.60
2022-09-13T02:28:57.307Z,984.58
2022-09-13T02:29:57.267Z,984.60
2022-09-13T02:30:57.236Z,984.58
2022-09-13T02:31:57.243Z,984.58
2022-09-13T02:32:57.157Z,984.58
2022-09-13T02:33:57.127Z,984.58
2022-09-13T02:34:57.098Z,984.58
2022-09-13T02:35:57.076Z,984.64
2022-09-13T02:36:57.025Z,984.66
2022-09-13T02:37:56.998Z,984.66
2022-09-13T02:38:56.954Z,984.72
2022-09-13T02:39:56.963Z,984.74
2022-09-13T02:40:56.894Z,984.76
2022-09-13T02:41:56.844Z,984.76
2022-09-13T02:42:56.816Z,984.74
2022-09-13T02:43:56.824Z,984.74
2022-09-13T02:44:56.733Z,984.70
2022-09-13T02:45:56.762Z,984.70
2022-09-13T02:46:56.653Z,984.68
2022-09-13T02:47:56.625Z,984.66
2022-09-13T02:48:56.584Z,984.64
2022-09-13T02:49:56.553Z,984.62
2022-09-13T02:50:56.532Z,984.60
2022-09-13T02:51:56.491Z,984.58
2022-09-13T02:52:56.449Z,984.56
2022-09-13T02:53:56.419Z,984.56
2022-09-13T02:54:56.371Z,984.56
2022-09-13T02:55:56.354Z,984.56
2022-09-13T02:56:56.302Z,984.54
2022-09-13T02:57:56.271Z,984.54
2022-09-13T02:58:56.238Z,984.52
2022-09-13T02:59:56.200Z,984.52
2022-09-13T03:00:56.269Z,984.50
2022-09-13T03:01:56.201Z,984.50
2022-09-13T03:02:56.109Z,984.46
2022-09-13T03:03:56.079Z,984.42
2022-09-13T03:04:56.039Z,984.40
2022-09-13T03:05:56.029Z,984.36
2022-09-13T03:06:55.987Z,984.32
2022-09-13T03:07:55.950Z,984.34
2022-09-13T03:08:55.918Z,984.34
2022-09-13T03:09:55.878Z,984.36
2022-09-13T03:10:55.857Z,984.42
2022-09-13T03:11:55.806Z,984.44
2022-09-13T03:12:55.777Z,984.44
2022-09-13T03:13:55.747Z,984.40
2022-09-13T03:14:55.710Z,984.38
2022-09-13T03:15:55.680Z,984.36
2022-09-13T03:16:55.738Z,984.34
2022-09-13T03:17:55.606Z,984.36
2022-09-13T03:18:55.566Z,984.32
2022-09-13T03:19:55.546Z,984.31
2022-09-13T03:20:55.495Z,984.29
2022-09-13T03:21:55.465Z,984.32
2022-09-13T03:22:55.425Z,984.31
2022-09-13T03:23:55.385Z,984.31
2022-09-13T03:24:55.376Z,984.29
2022-09-13T03:25:55.312Z,984.27
2022-09-13T03:26:55.285Z,984.25
2022-09-13T03:27:55.243Z,984.25
2022-09-13T03:28:55.207Z,984.23
2022-09-13T03:29:55.174Z,984.23
2022-09-13T03:30:55.134Z,984.23
2022-09-13T03:31:55.121Z,984.23
2022-09-13T03:32:55.067Z,984.25
2022-09-13T03:33:55.023Z,984.23
2022-09-13T03:34:55.000Z,984.23
2022-09-13T03:35:54.970Z,984.21
2022-09-13T03:36:54.942Z,984.19
2022-09-13T03:37:54.912Z,984.17
2022-09-13T03:38:54.880Z,984.17
2022-09-13T03:39:54.877Z,984.15
2022-09-13T03:40:54.823Z,984.13
2022-09-13T03:41:54.794Z,984.11
2022-09-13T03:42:54.748Z,984.09
2022-09-13T03:43:54.712Z,984.05
2022-09-13T03:44:54.690Z,984.07
2022-09-13T03:45:54.722Z,984.07
2022-09-13T03:46:54.610Z,984.09
2022-09-13T03:47:54.570Z,984.11
2022-09-13T03:48:54.537Z,984.11
2022-09-13T03:49:54.497Z,984.11
2022-09-13T03:50:54.471Z,984.05
2022-09-13T03:51:54.440Z,984.07
2022-09-13T03:52:54.409Z,984.07
2022-09-13T03:53:54.361Z,984.05
2022-09-13T03:54:54.327Z,984.05
2022-09-13T03:55:54.288Z,984.05
2022-09-13T03:56:54.268Z,984.05
2022-09-13T03:57:54.246Z,984.05
2022-09-13T03:58:54.191Z,984.07
2022-09-13T03:59:54.155Z,984.07
2022-09-13T04:00:54.197Z,984.09
2022-09-13T04:01:54.112Z,984.11
2022-09-13T04:02:54.066Z,984.13
2022-09-13T04:03:56.756Z,984.15
2022-09-13T04:04:53.966Z,984.17
2022-09-13T04:05:53.935Z,984.19
2022-09-13T04:06:53.905Z,984.21
2022-09-13T04:07:53.876Z,984.25
2022-09-13T04:08:53.833Z,984.25
2022-09-13T04:09:53.795Z,984.25
2022-09-13T04:10:53.765Z,984.25
2022-09-13T04:11:53.725Z,984.23
2022-09-13T04:12:53.704Z,984.19
2022-09-13T04:13:53.645Z,984.17
2022-09-13T04:14:53.614Z,984.15
2022-09-13T04:15:53.573Z,984.13
2022-09-13T04:16:53.533Z,984.11
2022-09-13T04:17:53.504Z,984.13
2022-09-13T04:18:53.463Z,984.15
2022-09-13T04:19:53.437Z,984.15
2022-09-13T04:20:53.393Z,984.23
2022-09-13T04:21:53.362Z,984.25
2022-09-13T04:22:53.321Z,984.27
2022-09-13T04:23:53.273Z,984.31
2022-09-13T04:24:53.232Z,984.25
2022-09-13T04:25:53.199Z,984.27
2022-09-13T04:26:53.169Z,984.29
2022-09-13T04:27:53.142Z,984.31
2022-09-13T04:28:53.132Z,984.32
2022-09-13T04:29:53.098Z,984.36
2022-09-13T04:30:53.030Z,984.36
2022-09-13T04:31:53.044Z,984.40
2022-09-13T04:32:52.960Z,984.44
2022-09-13T04:33:52.920Z,984.46
2022-09-13T04:34:52.881Z,984.46
2022-09-13T04:35:52.841Z,984.44
2022-09-13T04:36:52.820Z,984.42
2022-09-13T04:37:52.780Z,984.42
2022-09-13T04:38:52.731Z,984.44
2022-09-13T04:39:52.727Z,984.48
2022-09-13T04:40:52.649Z,984.52
2022-09-13T04:41:52.605Z,984.54
2022-09-13T04:42:52.578Z,984.52
2022-09-13T04:43:52.530Z,984.52
2022-09-13T04:44:52.488Z,984.58
2022-09-13T04:45:52.511Z,984.58
2022-09-13T04:46:52.420Z,984.60
2022-09-13T04:47:52.387Z,984.62
2022-09-13T04:48:52.334Z,984.60
2022-09-13T04:49:52.297Z,984.64
2022-09-13T04:50:52.268Z,984.68
2022-09-13T04:51:52.226Z,984.66
2022-09-13T04:52:52.196Z,984.68
2022-09-13T04:53:52.166Z,984.68
2022-09-13T04:54:52.136Z,984.64
2022-09-13T04:55:52.095Z,984.66
2022-09-13T04:56:52.045Z,984.64
2022-09-13T04:57:52.016Z,984.64
2022-09-13T04:58:51.975Z,984.60
2022-09-13T04:59:51.942Z,984.56
2022-09-13T05:00:51.946Z,984.56
2022-09-13T05:01:51.906Z,984.54
2022-09-13T05:02:51.834Z,984.52
2022-09-13T05:03:51.786Z,984.48
2022-09-13T05:04:51.763Z,984.44
2022-09-13T05:05:51.723Z,984.38
2022-09-13T05:06:51.682Z,984.32
2022-09-13T05:07:51.805Z,984.32
2022-09-13T05:08:51.613Z,984.29
2022-09-13T05:09:51.573Z,984.25
2022-09-13T05:10:51.532Z,984.19
2022-09-13T05:11:51.493Z,984.17
2022-09-13T05:12:51.483Z,984.15
2022-09-13T05:13:51.420Z,984.11
2022-09-13T05:14:51.381Z,984.11
2022-09-13T05:15:51.400Z,984.13
2022-09-13T05:16:51.311Z,984.15
2022-09-13T05:17:51.283Z,984.15
2022-09-13T05:18:51.345Z,984.19
2022-09-13T05:19:51.191Z,984.27
2022-09-13T05:20:51.154Z,984.31
2022-09-13T05:21:51.191Z,984.42
2022-09-13T05:22:51.081Z,984.52
2022-09-13T05:23:51.037Z,984.64
2022-09-13T05:24:51.000Z,984.66
2022-09-13T05:25:50.957Z,984.70
2022-09-13T05:26:50.923Z,984.70
2022-09-13T05:27:50.891Z,984.66
2022-09-13T05:28:50.970Z,984.64
2022-09-13T05:29:50.799Z,984.62
2022-09-13T05:30:50.829Z,984.58
2022-09-13T05:31:50.727Z,984.54
2022-09-13T05:32:50.685Z,984.48
2022-09-13T05:33:50.648Z,984.42
2022-09-13T05:34:50.602Z,984.36
2022-09-13T05:35:50.567Z,984.38
2022-09-13T05:36:53.925Z,984.36
2022-09-13T05:37:50.476Z,984.34
2022-09-13T05:39:01.652Z,984.40
2022-09-13T05:40:10.641Z,984.40
2022-09-13T05:40:51.422Z,984.44
2022-09-13T05:41:50.315Z,984.44
2022-09-13T05:42:50.276Z,984.46
2022-09-13T05:43:50.235Z,984.46
2022-09-13T05:44:50.186Z,984.48
2022-09-13T05:45:50.171Z,984.48
2022-09-13T05:46:50.113Z,984.50
2022-09-13T05:47:50.063Z,984.52
2022-09-13T05:48:50.168Z,984.54
2022-09-13T05:50:09.467Z,984.58
2022-09-13T05:50:58.864Z,984.56
2022-09-13T05:51:50.913Z,984.54
2022-09-13T05:52:49.884Z,984.52
2022-09-13T05:53:49.857Z,984.54
2022-09-13T05:54:49.802Z,984.50
2022-09-13T05:55:49.761Z,984.46
2022-09-13T05:56:49.725Z,984.46
2022-09-13T05:57:49.692Z,984.42
2022-09-13T05:58:49.788Z,984.40
2022-09-13T05:59:49.627Z,984.34
2022-09-13T06:00:49.582Z,984.31
2022-09-13T06:01:49.608Z,984.29
2022-09-13T06:02:49.572Z,984.29
2022-09-13T06:03:49.513Z,984.32
2022-09-13T06:04:49.452Z,984.31
2022-09-13T06:05:49.425Z,984.32
2022-09-13T06:06:49.381Z,984.31
2022-09-13T06:07:49.341Z,984.32
2022-09-13T06:08:49.437Z,984.31
2022-09-13T06:09:49.272Z,984.23
2022-09-13T06:10:49.231Z,984.19
2022-09-13T06:11:49.190Z,984.17
2022-09-13T06:12:49.158Z,984.17
2022-09-13T06:13:49.136Z,984.17
2022-09-13T06:14:49.092Z,984.21
2022-09-13T06:15:49.066Z,984.23
2022-09-13T06:16:49.008Z,984.31
2022-09-13T06:17:48.971Z,984.31
2022-09-13T06:18:49.018Z,984.34
2022-09-13T06:19:48.891Z,984.36
2022-09-13T06:20:48.888Z,984.36
2022-09-13T06:21:48.857Z,984.38
2022-09-13T06:22:48.787Z,984.42
2022-09-13T06:23:48.748Z,984.44
2022-09-13T06:24:48.745Z,984.48
2022-09-13T06:25:48.657Z,984.50
2022-09-13T06:26:48.626Z,984.48
2022-09-13T06:27:50.131Z,984.46
2022-09-13T06:28:48.872Z,984.48
2022-09-13T06:29:48.496Z,984.52
2022-09-13T06:30:48.466Z,984.54
2022-09-13T06:31:48.437Z,984.58
2022-09-13T06:32:48.386Z,984.56
2022-09-13T06:33:48.355Z,984.56
2022-09-13T06:34:48.321Z,984.52
2022-09-13T06:35:48.271Z,984.48
2022-09-13T06:36:48.274Z,984.48
2022-09-13T06:37:48.195Z,984.42
2022-09-13T06:38:48.329Z,984.38
2022-09-13T06:39:48.160Z,984.38
2022-09-13T06:40:48.093Z,984.34
2022-09-13T06:41:48.060Z,984.34
2022-09-13T06:42:48.023Z,984.32
2022-09-13T06:43:48.006Z,984.29
2022-09-13T06:44:47.968Z,984.27
2022-09-13T06:45:47.989Z,984.21
2022-09-13T06:46:47.914Z,984.21
2022-09-13T06:47:47.844Z,984.19
2022-09-13T06:48:47.824Z,984.15
2022-09-13T06:49:47.771Z,984.13
2022-09-13T06:50:47.742Z,984.09
2022-09-13T06:51:47.714Z,984.05
2022-09-13T06:52:47.660Z,984.01
2022-09-13T06:53:47.639Z,983.99
2022-09-13T06:54:47.599Z,983.95
2022-09-13T06:55:47.570Z,983.89
2022-09-13T06:56:47.539Z,983.85
2022-09-13T06:57:47.489Z,983.82
2022-09-13T06:58:47.467Z,983.82
2022-09-13T06:59:47.428Z,983.82
2022-09-13T07:00:47.463Z,983.85
2022-09-13T07:01:47.439Z,983.85
2022-09-13T07:02:47.309Z,983.87
2022-09-13T07:03:47.278Z,983.89
2022-09-13T07:04:47.236Z,983.91
2022-09-13T07:05:47.188Z,983.95
2022-09-13T07:06:47.140Z,983.97
2022-09-13T07:07:47.117Z,983.97
2022-09-13T07:08:47.079Z,983.95
2022-09-13T07:09:47.037Z,983.95
2022-09-13T07:10:47.007Z,983.91
2022-09-13T07:11:46.985Z,983.91
2022-09-13T07:12:46.928Z,983.93
2022-09-13T07:13:46.897Z,983.91
2022-09-13T07:14:46.846Z,983.91
2022-09-13T07:15:46.829Z,983.89
2022-09-13T07:16:46.767Z,983.89
2022-09-13T07:17:46.743Z,983.87
2022-09-13T07:18:46.715Z,983.89
2022-09-13T07:19:46.675Z,983.93
2022-09-13T07:20:46.634Z,983.91
2022-09-13T07:21:46.598Z,983.91
2022-09-13T07:22:46.572Z,983.95
2022-09-13T07:23:46.534Z,983.95
2022-09-13T07:24:46.494Z,983.95
2022-09-13T07:25:46.451Z,983.93
2022-09-13T07:26:46.421Z,983.89
2022-09-13T07:27:46.383Z,983.87
2022-09-13T07:28:46.387Z,983.85
2022-09-13T07:29:46.313Z,983.84
2022-09-13T07:30:46.305Z,983.84
2022-09-13T07:31:46.257Z,983.82
2022-09-13T07:32:46.212Z,983.82
2022-09-13T07:33:46.186Z,983.87
2022-09-13T07:34:46.152Z,983.89
2022-09-13T07:35:46.114Z,983.91
2022-09-13T07:36:46.071Z,983.97
2022-09-13T07:37:46.032Z,983.99
2022-09-13T07:38:46.029Z,984.01
2022-09-13T07:39:46.033Z,984.01
2022-09-13T07:40:45.910Z,984.05
2022-09-13T07:41:45.878Z,984.09
2022-09-13T07:42:45.830Z,984.11
2022-09-13T07:43:45.807Z,984.15
2022-09-13T07:44:45.740Z,984.13
2022-09-13T07:45:45.699Z,984.13
2022-09-13T07:46:45.680Z,984.11
2022-09-13T07:47:45.624Z,984.13
2022-09-13T07:48:45.629Z,984.13
2022-09-13T07:49:45.565Z,984.13
2022-09-13T07:50:45.528Z,984.17
2022-09-13T07:51:45.476Z,984.21
2022-09-13T07:52:45.439Z,984.25
2022-09-13T07:53:45.397Z,984.31
2022-09-13T07:54:45.366Z,984.31
2022-09-13T07:55:45.307Z,984.34
2022-09-13T07:56:45.279Z,984.34
2022-09-13T07:57:45.228Z,984.32
2022-09-13T07:58:45.187Z,984.32
2022-09-13T07:59:45.164Z,984.34
2022-09-13T08:00:45.116Z,984.36
2022-09-13T08:01:45.201Z,984.40
2022-09-13T08:02:45.092Z,984.40
2022-09-13T08:03:44.995Z,984.40
2022-09-13T08:04:44.973Z,984.42
2022-09-13T08:05:44.937Z,984.44
2022-09-13T08:06:44.895Z,984.42
2022-09-13T08:07:44.855Z,984.40
2022-09-13T08:08:44.815Z,984.36
2022-09-13T08:09:44.792Z,984.32
2022-09-13T08:10:49.281Z,984.29
2022-09-13T08:11:44.695Z,984.25
2022-09-13T08:12:44.653Z,984.21
2022-09-13T08:13:44.614Z,984.17
2022-09-13T08:14:44.583Z,984.15
2022-09-13T08:15:44.567Z,984.13
2022-09-13T08:16:44.512Z,984.11
2022-09-13T08:17:44.470Z,984.15
2022-09-13T08:18:44.423Z,984.19
2022-09-13T08:19:44.393Z,984.23
2022-09-13T08:20:44.343Z,984.29
2022-09-13T08:21:44.306Z,984.36
2022-09-13T08:22:44.261Z,984.40
2022-09-13T08:23:44.222Z,984.42
2022-09-13T08:24:44.199Z,984.46
2022-09-13T08:25:44.149Z,984.46
2022-09-13T08:26:44.111Z,984.44
2022-09-13T08:27:44.071Z,984.44
2022-09-13T08:28:44.030Z,984.44
2022-09-13T08:29:44.017Z,984.46
2022-09-13T08:30:44.048Z,984.46
2022-09-13T08:31:43.980Z,984.48
2022-09-13T08:32:43.898Z,984.50
2022-09-13T08:33:46.434Z,984.58
2022-09-13T08:34:43.819Z,984.64
2022-09-13T08:35:43.759Z,984.70
2022-09-13T08:36:43.728Z,984.76
2022-09-13T08:37:43.688Z,984.79
2022-09-13T08:38:43.649Z,984.79
2022-09-13T08:39:43.669Z,984.79
2022-09-13T08:40:43.586Z,984.79
2022-09-13T08:41:43.546Z,984.76
2022-09-13T08:42:43.511Z,984.70
2022-09-13T08:43:43.531Z,984.70
2022-09-13T08:44:43.447Z,984.66
2022-09-13T08:45:43.405Z,984.64
2022-09-13T08:46:43.356Z,984.68
2022-09-13T08:47:43.317Z,984.68
2022-09-13T08:48:43.313Z,984.66
2022-09-13T08:49:43.259Z,984.66
2022-09-13T08:50:43.215Z,984.66
2022-09-13T08:51:43.176Z,984.64
2022-09-13T08:52:43.136Z,984.64
2022-09-13T08:53:43.150Z,984.58
2022-09-13T08:54:43.075Z,984.58
2022-09-13T08:55:43.015Z,984.56
2022-09-13T08:56:42.985Z,984.60
2022-09-13T08:57:42.959Z,984.56
2022-09-13T08:58:42.905Z,984.60
2022-09-13T08:59:42.874Z,984.56
2022-09-13T09:00:42.833Z,984.60
2022-09-13T09:01:42.835Z,984.60
2022-09-13T09:02:42.805Z,984.60
2022-09-13T09:03:42.795Z,984.60
2022-09-13T09:04:42.691Z,984.58
2022-09-13T09:05:42.632Z,984.56
2022-09-13T09:06:42.594Z,984.54
2022-09-13T09:07:42.553Z,984.52
2022-09-13T09:08:42.511Z,984.48
2022-09-13T09:09:42.481Z,984.50
2022-09-13T09:10:42.420Z,984.48
2022-09-13T09:11:42.382Z,984.50
2022-09-13T09:12:42.338Z,984.54
2022-09-13T09:13:42.337Z,984.54
2022-09-13T09:14:42.280Z,984.56
2022-09-13T09:15:42.249Z,984.56
2022-09-13T09:16:42.179Z,984.58
2022-09-13T09:17:42.139Z,984.58
2022-09-13T09:18:42.091Z,984.58
2022-09-13T09:19:42.066Z,984.56
2022-09-13T09:20:42.018Z,984.54
2022-09-13T09:21:41.968Z,984.54
2022-09-13T09:22:41.919Z,984.56
2022-09-13T09:23:41.887Z,984.60
2022-09-13T09:24:41.858Z,984.64
2022-09-13T09:25:41.815Z,984.68
2022-09-13T09:26:41.790Z,984.70
2022-09-13T09:27:41.738Z,984.74
2022-09-13T09:28:41.698Z,984.76
2022-09-13T09:29:41.927Z,984.78
2022-09-13T09:30:41.640Z,984.79
2022-09-13T09:31:41.599Z,984.81
2022-09-13T09:32:41.549Z,984.81
2022-09-13T09:33:41.574Z,984.81
2022-09-13T09:34:41.486Z,984.83
2022-09-13T09:35:41.433Z,984.83
2022-09-13T09:36:41.395Z,984.94
2022-09-13T09:37:41.365Z,984.96
2022-09-13T09:38:41.326Z,984.94
2022-09-13T09:39:41.326Z,984.96
2022-09-13T09:40:41.235Z,984.96
2022-09-13T09:41:41.198Z,984.96
2022-09-13T09:42:41.155Z,984.94
2022-09-13T09:43:41.122Z,984.94
2022-09-13T09:44:41.095Z,984.94
2022-09-13T09:45:41.207Z,984.83
2022-09-13T09:46:41.001Z,984.81
2022-09-13T09:47:40.964Z,984.79
2022-09-13T09:48:40.923Z,984.76
2022-09-13T09:49:40.893Z,984.72
2022-09-13T09:50:40.856Z,984.72
2022-09-13T09:51:40.803Z,984.68
2022-09-13T09:52:40.770Z,984.66
2022-09-13T09:53:40.722Z,984.64
2022-09-13T09:54:40.691Z,984.58
2022-09-13T09:55:40.671Z,984.54
2022-09-13T09:56:40.612Z,984.50
2022-09-13T09:57:40.571Z,984.48
2022-09-13T09:58:40.541Z,984.46
2022-09-13T09:59:40.493Z,984.44
2022-09-13T10:00:40.471Z,984.44
2022-09-13T10:01:40.588Z,984.44
2022-09-13T10:02:40.408Z,984.44
2022-09-13T10:03:40.360Z,984.46
2022-09-13T10:04:40.320Z,984.50
2022-09-13T10:05:40.288Z,984.52
2022-09-13T10:06:40.230Z,984.54
2022-09-13T10:07:40.199Z,984.54
2022-09-13T10:08:40.150Z,984.52
2022-09-13T10:09:40.120Z,984.50
2022-09-13T10:10:40.089Z,984.50
2022-09-13T10:11:40.017Z,984.50
2022-09-13T10:12:39.978Z,984.48
2022-09-13T10:13:39.938Z,984.50
2022-09-13T10:14:39.900Z,984.52
2022-09-13T10:15:39.865Z,984.54
2022-09-13T10:16:39.830Z,984.52
2022-09-13T10:17:39.767Z,984.52
2022-09-13T10:18:44.347Z,984.52
2022-09-13T10:19:40.696Z,984.52
2022-09-13T10:20:39.656Z,984.50
2022-09-13T10:21:39.615Z,984.50
2022-09-13T10:22:39.567Z,984.50
2022-09-13T10:23:39.525Z,984.54
2022-09-13T10:24:39.487Z,984.58
2022-09-13T10:25:39.468Z,984.64
2022-09-13T10:26:39.407Z,984.66
2022-09-13T10:27:39.365Z,984.66
2022-09-13T10:28:39.327Z,984.66
2022-09-13T10:29:39.285Z,984.66
2022-09-13T10:30:39.272Z,984.66
2022-09-13T10:31:39.205Z,984.62
2022-09-13T10:32:39.164Z,984.62
2022-09-13T10:33:39.113Z,984.62
2022-09-13T10:34:39.083Z,984.62
2022-09-13T10:35:39.045Z,984.62
2022-09-13T10:36:52.292Z,984.62
2022-09-13T10:37:39.953Z,984.58
2022-09-13T10:38:41.862Z,984.56
2022-09-13T10:39:39.983Z,984.54
2022-09-13T10:40:38.813Z,984.50
2022-09-13T10:41:38.782Z,984.48
2022-09-13T10:42:38.732Z,984.44
2022-09-13T10:43:38.693Z,984.42
2022-09-13T10:44:38.649Z,984.38
2022-09-13T10:45:38.649Z,984.36
2022-09-13T10:46:38.561Z,984.32
2022-09-13T10:47:38.511Z,984.29
2022-09-13T10:48:38.506Z,984.25
2022-09-13T10:49:38.431Z,984.23
2022-09-13T10:50:38.380Z,984.21
2022-09-13T10:51:38.352Z,984.19
2022-09-13T10:52:38.299Z,984.19
2022-09-13T10:53:38.253Z,984.19
2022-09-13T10:54:38.220Z,984.17
2022-09-13T10:55:38.178Z,984.15
2022-09-13T10:56:38.149Z,984.11
2022-09-13T10:57:38.090Z,984.09
2022-09-13T10:58:38.104Z,984.07
2022-09-13T10:59:38.008Z,984.05
2022-09-13T11:00:37.968Z,984.01
2022-09-13T11:01:40.396Z,983.99
2022-09-13T11:02:37.898Z,983.99
2022-09-13T11:03:37.863Z,983.99
2022-09-13T11:04:37.815Z,983.99
2022-09-13T11:05:37.786Z,983.99
2022-09-13T11:06:37.748Z,983.99
2022-09-13T11:07:37.706Z,983.99
2022-09-13T11:08:37.647Z,983.97
2022-09-13T11:09:37.644Z,983.99
2022-09-13T11:10:37.556Z,983.97
2022-09-13T11:11:37.532Z,983.97
2022-09-13T11:12:37.485Z,983.95
2022-09-13T11:13:37.482Z,983.95
2022-09-13T11:14:37.407Z,983.93
2022-09-13T11:15:37.373Z,983.93
2022-09-13T11:16:37.354Z,983.93
2022-09-13T11:17:37.296Z,983.91
2022-09-13T11:18:37.294Z,983.91
2022-09-13T11:19:37.204Z,983.93
2022-09-13T11:20:37.173Z,983.93
2022-09-13T11:21:37.133Z,983.93
2022-09-13T11:22:37.094Z,983.93
2022-09-13T11:23:37.053Z,983.91
2022-09-13T11:24:37.012Z,983.87
2022-09-13T11:25:36.971Z,983.85
2022-09-13T11:26:38.578Z,983.84
2022-09-13T11:27:36.901Z,983.82
2022-09-13T11:28:36.854Z,983.78
2022-09-13T11:29:36.802Z,983.74
2022-09-13T11:30:36.780Z,983.72
2022-09-13T11:31:36.759Z,983.70
2022-09-13T11:32:36.713Z,983.68
2022-09-13T11:33:36.660Z,983.68
2022-09-13T11:34:36.611Z,983.68
2022-09-13T11:35:36.571Z,983.68
2022-09-13T11:36:36.531Z,983.72
2022-09-13T11:37:36.500Z,983.72
2022-09-13T11:38:36.440Z,983.74
2022-09-13T11:39:36.414Z,983.74
2022-09-13T11:40:36.369Z,983.76
2022-09-13T11:41:36.338Z,983.76
2022-09-13T11:42:36.307Z,983.76
2022-09-13T11:43:36.248Z,983.78
2022-09-13T11:44:36.227Z,983.78
2022-09-13T11:45:36.203Z,983.76
2022-09-13T11:46:36.158Z,983.76
2022-09-13T11:47:36.123Z,983.74
2022-09-13T11:48:36.077Z,983.74
2022-09-13T11:49:36.015Z,983.72
2022-09-13T11:50:35.970Z,983.70
2022-09-13T11:51:35.927Z,983.68
2022-09-13T11:52:35.896Z,983.66
2022-09-13T11:53:35.849Z,983.68
2022-09-13T11:54:35.816Z,983.68
2022-09-13T11:55:35.786Z,983.66
2022-09-13T11:56:35.747Z,983.66
2022-09-13T11:57:35.717Z,983.66
2022-09-13T11:58:35.668Z,983.64
2022-09-13T11:59:35.639Z,983.64
2022-09-13T12:00:35.596Z,983.62
2022-09-13T12:01:35.554Z,983.62
2022-09-13T12:02:35.552Z,983.62
2022-09-13T12:03:35.472Z,983.62
2022-09-13T12:04:35.442Z,983.60
2022-09-13T12:05:35.384Z,983.58
2022-09-13T12:06:35.344Z,983.56
2022-09-13T12:07:35.311Z,983.54
2022-09-13T12:08:35.253Z,983.52
2022-09-13T12:09:35.214Z,983.52
2022-09-13T12:10:35.178Z,983.50
2022-09-13T12:11:35.151Z,983.50
2022-09-13T12:12:35.095Z,983.48
2022-09-13T12:13:35.042Z,983.48
2022-09-13T12:14:34.992Z,983.46
2022-09-13T12:15:34.950Z,983.46
2022-09-13T12:16:36.393Z,983.46
2022-09-13T12:17:34.861Z,983.46
2022-09-13T12:18:34.812Z,983.44
2022-09-13T12:19:34.778Z,983.42
2022-09-13T12:20:34.731Z,983.42
2022-09-13T12:21:34.691Z,983.42
2022-09-13T12:22:34.641Z,983.40
2022-09-13T12:23:34.591Z,983.38
2022-09-13T12:24:34.551Z,983.35
2022-09-13T12:25:34.501Z,983.35
2022-09-13T12:26:34.478Z,983.31
2022-09-13T12:27:39.145Z,983.29